Time;durP1;ratioP1;P1;durP2;ratioP2;P2;SDS_P1;SDS_P2;PMS_P1;PMS_P2;Temp;Humidity;BMP_temperature;BMP_pressure;BME280_temperature;BME280_humidity;BME280_pressure;Samples;Min_cycle;Max_cycle;Signal;HPM_P1;HPM_P2
2021/07/09 00:01:56;;;;;;;7.15;3.70;;;18.40;85.10;;;;;;4986899;28;20053;-81
2021/07/09 00:04:24;;;;;;;5.20;3.42;;;18.40;85.80;;;;;;4986268;28;20361;-82
2021/07/09 00:06:53;;;;;;;5.60;2.83;;;18.40;85.10;;;;;;4973193;28;20035;-82
2021/07/09 00:09:20;;;;;;;4.50;2.95;;;18.40;85.10;;;;;;5004569;28;20057;-82
2021/07/09 00:11:49;;;;;;;5.95;3.53;;;18.40;85.20;;;;;;4985845;28;20506;-82
2021/07/09 00:14:18;;;;;;;5.15;3.25;;;18.30;85.10;;;;;;4971074;28;20047;-81
2021/07/09 00:16:47;;;;;;;5.05;3.30;;;18.40;85.10;;;;;;4970197;28;20491;-81
2021/07/09 00:19:15;;;;;;;4.50;2.80;;;18.30;85.20;;;;;;4987309;28;20101;-81
2021/07/09 00:21:43;;;;;;;4.60;2.83;;;18.30;85.20;;;;;;4987434;28;20057;-80
2021/07/09 00:24:10;;;;;;;6.53;3.67;;;18.30;85.20;;;;;;4986276;28;20070;-81
2021/07/09 00:26:37;;;;;;;6.15;4.13;;;18.30;85.20;;;;;;5001575;28;20042;-81
2021/07/09 00:29:05;;;;;;;7.38;4.07;;;18.30;85.20;;;;;;4968805;28;20451;-81
2021/07/09 00:31:33;;;;;;;7.60;4.55;;;18.30;85.20;;;;;;4988377;28;20047;-81
2021/07/09 00:34:03;;;;;;;8.18;5.05;;;18.30;85.20;;;;;;5001155;28;20053;-81
2021/07/09 00:36:30;;;;;;;6.28;4.70;;;18.20;85.20;;;;;;4954879;28;20458;-82
2021/07/09 00:38:57;;;;;;;8.45;4.35;;;18.20;85.30;;;;;;4962984;28;20043;-81
2021/07/09 00:41:25;;;;;;;8.07;5.00;;;18.10;85.20;;;;;;4969145;28;20046;-81
2021/07/09 00:43:52;;;;;;;7.25;4.70;;;18.10;85.30;;;;;;4953876;28;20045;-82
2021/07/09 00:46:39;;;;;;;5.53;3.83;;;18.10;85.40;;;;;;4972016;28;20062;-81
2021/07/09 00:49:08;;;;;;;6.32;4.43;;;18.10;85.30;;;;;;5004363;28;20039;-81
2021/07/09 00:51:36;;;;;;;9.20;5.15;;;18.10;86.00;;;;;;4976748;28;20051;-81
2021/07/09 00:54:03;;;;;;;6.15;4.05;;;18.00;85.40;;;;;;4987333;28;20055;-81
2021/07/09 00:56:32;;;;;;;6.30;3.95;;;18.00;85.40;;;;;;4930218;28;20035;-82
2021/07/09 00:59:01;;;;;;;6.55;3.88;;;18.00;85.50;;;;;;4934964;28;20443;-82
2021/07/09 01:01:28;;;;;;;5.93;3.35;;;18.00;85.50;;;;;;4987622;28;20062;-81
2021/07/09 01:03:55;;;;;;;7.15;4.32;;;18.00;85.50;;;;;;4934672;28;20071;-81
2021/07/09 01:06:22;;;;;;;6.15;4.10;;;17.90;85.50;;;;;;4970411;28;20047;-81
2021/07/09 01:08:49;;;;;;;6.13;4.30;;;17.90;85.50;;;;;;4945462;28;20053;-82
2021/07/09 01:11:19;;;;;;;7.35;4.07;;;17.80;85.60;;;;;;4989039;28;20444;-82
2021/07/09 01:13:46;;;;;;;6.60;4.70;;;17.80;85.60;;;;;;4987316;28;20449;-82
2021/07/09 01:16:14;;;;;;;8.15;5.88;;;17.70;85.70;;;;;;4980273;28;20050;-82
2021/07/09 01:18:41;;;;;;;8.38;6.28;;;17.70;85.90;;;;;;4947781;28;20043;-81
2021/07/09 01:21:09;;;;;;;8.15;5.68;;;17.60;86.00;;;;;;4968289;28;20047;-81
2021/07/09 01:23:38;;;;;;;7.82;5.40;;;17.60;86.10;;;;;;4975265;28;20059;-82
2021/07/09 01:26:06;;;;;;;10.60;6.57;;;17.50;86.20;;;;;;4972330;28;20105;-82
2021/07/09 01:28:33;;;;;;;11.20;5.40;;;17.50;86.20;;;;;;4971786;28;20058;-82
2021/07/09 01:31:01;;;;;;;9.35;5.75;;;17.40;86.20;;;;;;4960951;28;20051;-82
2021/07/09 01:33:28;;;;;;;8.43;5.55;;;17.40;86.30;;;;;;4988317;28;20110;-82
2021/07/09 01:35:55;;;;;;;9.50;5.82;;;17.30;86.20;;;;;;4970722;28;20050;-82
2021/07/09 01:38:22;;;;;;;7.68;4.55;;;17.30;86.20;;;;;;4970709;28;20042;-81
2021/07/09 01:40:49;;;;;;;9.23;5.38;;;17.30;86.30;;;;;;4972857;28;20047;-82
2021/07/09 01:43:16;;;;;;;10.43;5.90;;;17.30;86.30;;;;;;4970324;28;20109;-82
2021/07/09 01:45:44;;;;;;;9.30;5.82;;;17.30;86.40;;;;;;4970365;28;20157;-81
2021/07/09 01:48:11;;;;;;;10.38;6.30;;;17.20;86.40;;;;;;4942508;28;20479;-82
2021/07/09 01:50:38;;;;;;;9.23;5.70;;;17.20;86.40;;;;;;4983444;28;20415;-81
2021/07/09 01:53:05;;;;;;;9.30;5.97;;;17.20;86.40;;;;;;4974330;28;20050;-82
2021/07/09 01:55:32;;;;;;;8.20;5.20;;;17.20;86.40;;;;;;4958910;28;20054;-82
2021/07/09 01:57:59;;;;;;;8.25;5.25;;;17.20;86.40;;;;;;4990939;28;20455;-82
2021/07/09 02:00:27;;;;;;;10.15;4.50;;;17.10;86.40;;;;;;4974819;28;20090;-82
2021/07/09 02:02:55;;;;;;;7.75;4.65;;;17.20;86.40;;;;;;4991635;28;20101;-82
2021/07/09 02:05:23;;;;;;;8.68;4.65;;;17.10;86.40;;;;;;5004514;28;20049;-81
2021/07/09 02:07:56;;;;;;;9.50;5.22;;;17.10;86.40;;;;;;4974342;28;20085;-82
2021/07/09 02:10:27;;;;;;;8.45;4.63;;;17.10;86.30;;;;;;4991764;28;20487;-82
2021/07/09 02:12:56;;;;;;;9.20;5.25;;;17.10;86.30;;;;;;4990741;28;20453;-82
2021/07/09 02:15:28;;;;;;;8.25;5.35;;;17.10;86.40;;;;;;4968521;28;20047;-81
2021/07/09 02:17:55;;;;;;;7.97;4.70;;;17.10;86.30;;;;;;4974892;28;20514;-81
2021/07/09 02:20:24;;;;;;;7.55;4.68;;;17.10;86.30;;;;;;5007146;28;20495;-81
2021/07/09 02:22:55;;;;;;;7.53;4.28;;;17.10;86.30;;;;;;4990512;28;20506;-81
2021/07/09 02:25:23;;;;;;;7.82;3.85;;;17.10;86.20;;;;;;4958408;28;20042;-81
2021/07/09 02:27:51;;;;;;;6.93;3.55;;;17.10;86.20;;;;;;4953620;28;20043;-82
2021/07/09 02:30:18;;;;;;;8.70;4.93;;;17.10;86.20;;;;;;4971946;28;20047;-82
2021/07/09 02:32:47;;;;;;;7.97;4.30;;;17.10;86.30;;;;;;4968756;28;20134;-81
2021/07/09 02:35:17;;;;;;;6.72;4.30;;;17.10;86.30;;;;;;4979206;28;20079;-81
2021/07/09 02:37:46;;;;;;;7.80;4.00;;;17.00;86.30;;;;;;5003390;28;20051;-81
2021/07/09 02:40:16;;;;;;;6.72;3.97;;;17.00;86.30;;;;;;4973178;28;20034;-81
2021/07/09 02:42:46;;;;;;;7.10;3.90;;;17.00;86.40;;;;;;5007448;28;20808;-81
2021/07/09 02:45:13;;;;;;;8.07;4.55;;;17.00;86.40;;;;;;5002663;28;20053;-81
2021/07/09 02:47:42;;;;;;;6.38;3.55;;;17.00;86.50;;;;;;4988698;28;20152;-81
2021/07/09 02:50:12;;;;;;;6.88;3.50;;;17.00;86.50;;;;;;4949369;28;20110;-81
2021/07/09 02:52:39;;;;;;;7.30;4.20;;;16.90;86.40;;;;;;4988277;28;20051;-81
2021/07/09 02:55:07;;;;;;;5.97;3.72;;;17.00;86.50;;;;;;4973593;28;20053;-81
2021/07/09 02:57:35;;;;;;;6.55;3.30;;;17.00;86.50;;;;;;4971005;28;20503;-81
2021/07/09 03:00:07;;;;;;;8.80;4.20;;;17.00;86.60;;;;;;4972376;28;20043;-81
2021/07/09 03:02:34;;;;;;;6.40;3.65;;;17.00;86.60;;;;;;4982398;28;20046;-82
2021/07/09 03:05:01;;;;;;;6.47;3.55;;;17.00;86.70;;;;;;4973604;28;20495;-81
2021/07/09 03:07:28;;;;;;;8.13;4.25;;;17.00;86.70;;;;;;4990778;28;20065;-81
2021/07/09 03:09:55;;;;;;;5.95;3.28;;;17.00;86.70;;;;;;4972577;28;20069;-81
2021/07/09 03:12:22;;;;;;;10.07;4.53;;;17.00;86.90;;;;;;5004816;28;20068;-82
2021/07/09 03:14:49;;;;;;;7.30;3.80;;;17.00;86.80;;;;;;4972467;28;20157;-81
2021/07/09 03:17:16;;;;;;;6.88;3.80;;;17.00;86.80;;;;;;4949731;28;20113;-81
2021/07/09 03:19:43;;;;;;;6.90;3.95;;;17.00;86.90;;;;;;4971758;28;20074;-81
2021/07/09 03:22:10;;;;;;;8.98;3.88;;;16.90;86.90;;;;;;5001337;28;20648;-81
2021/07/09 03:24:37;;;;;;;7.07;4.07;;;16.90;86.90;;;;;;4990067;28;20046;-81
2021/07/09 03:27:06;;;;;;;7.30;3.67;;;16.90;87.00;;;;;;4983640;28;20047;-81
2021/07/09 03:29:33;;;;;;;6.95;3.72;;;16.90;87.00;;;;;;4962123;28;20399;-81
2021/07/09 03:32:00;;;;;;;6.93;3.55;;;16.90;87.00;;;;;;4993780;28;20074;-81
2021/07/09 03:34:27;;;;;;;8.27;4.10;;;16.90;87.00;;;;;;4975027;28;20047;-81
2021/07/09 03:36:54;;;;;;;8.13;4.05;;;16.90;87.10;;;;;;4972651;28;20047;-81
2021/07/09 03:39:21;;;;;;;9.52;4.10;;;16.80;87.10;;;;;;5005115;28;20051;-81
2021/07/09 03:41:48;;;;;;;7.32;4.40;;;16.80;87.20;;;;;;4974691;28;20403;-81
2021/07/09 03:44:15;;;;;;;6.13;3.53;;;16.70;87.30;;;;;;4973226;28;20110;-81
2021/07/09 03:46:43;;;;;;;6.50;3.40;;;16.70;87.40;;;;;;4988655;28;20125;-81
2021/07/09 03:49:10;;;;;;;6.55;3.47;;;16.70;88.10;;;;;;5001487;28;20628;-82
2021/07/09 03:51:38;;;;;;;6.90;3.17;;;16.70;87.50;;;;;;4988039;28;20074;-81
2021/07/09 03:54:06;;;;;;;8.35;3.92;;;16.60;87.50;;;;;;4966438;28;20056;-81
2021/07/09 03:56:33;;;;;;;11.75;4.15;;;16.60;87.60;;;;;;4972982;28;20491;-81
2021/07/09 03:59:01;;;;;;;8.85;3.50;;;16.60;87.70;;;;;;4957462;28;20093;-81
2021/07/09 04:01:28;;;;;;;7.38;3.67;;;16.60;87.70;;;;;;4956976;28;20045;-81
2021/07/09 04:03:55;;;;;;;8.23;4.32;;;16.50;87.60;;;;;;4957416;28;20142;-81
2021/07/09 04:06:22;;;;;;;8.43;4.72;;;16.50;87.70;;;;;;4957112;28;20054;-81
2021/07/09 04:08:49;;;;;;;9.15;4.43;;;16.50;87.80;;;;;;4972535;28;20129;-81
2021/07/09 04:11:16;;;;;;;8.02;4.35;;;16.50;87.80;;;;;;4989754;28;20097;-81
2021/07/09 04:13:43;;;;;;;8.27;4.57;;;16.50;87.90;;;;;;4957294;28;20439;-81
2021/07/09 04:16:11;;;;;;;6.68;3.78;;;16.50;87.90;;;;;;4957134;28;20047;-81
2021/07/09 04:18:40;;;;;;;8.05;4.28;;;16.50;87.90;;;;;;4957241;28;20053;-81
2021/07/09 04:21:07;;;;;;;10.10;5.22;;;16.50;87.90;;;;;;4933286;28;20134;-81
2021/07/09 04:23:34;;;;;;;6.82;3.88;;;16.50;87.80;;;;;;5000802;28;20126;-81
2021/07/09 04:26:01;;;;;;;6.68;4.22;;;16.50;87.80;;;;;;4960446;28;20049;-81
2021/07/09 04:28:28;;;;;;;7.70;3.78;;;16.60;87.80;;;;;;4947872;28;20474;-80
2021/07/09 04:30:55;;;;;;;8.43;4.35;;;16.60;87.70;;;;;;4989016;28;20141;-80
2021/07/09 04:33:23;;;;;;;6.47;3.60;;;16.60;87.70;;;;;;4987249;28;20047;-81
2021/07/09 04:35:50;;;;;;;9.70;5.03;;;16.70;87.80;;;;;;4971166;28;20515;-81
2021/07/09 04:38:18;;;;;;;9.30;5.40;;;16.70;88.40;;;;;;4988821;28;20039;-81
2021/07/09 04:40:46;;;;;;;10.43;5.55;;;16.70;87.70;;;;;;4972442;28;20066;-82
2021/07/09 04:43:13;;;;;;;9.43;5.13;;;16.70;87.80;;;;;;4948861;28;20055;-82
2021/07/09 04:45:41;;;;;;;9.75;5.50;;;16.70;87.80;;;;;;4967481;28;20039;-81
2021/07/09 04:48:08;;;;;;;8.70;4.97;;;16.70;87.80;;;;;;4968272;28;20039;-81
2021/07/09 04:50:36;;;;;;;8.68;5.07;;;16.70;87.80;;;;;;4985916;28;20043;-81
2021/07/09 04:53:03;;;;;;;9.00;4.55;;;16.70;87.80;;;;;;4986441;28;20047;-81
2021/07/09 04:55:30;;;;;;;11.00;5.32;;;16.70;87.80;;;;;;4935025;28;20042;-82
2021/07/09 04:57:57;;;;;;;8.10;4.45;;;16.80;87.80;;;;;;4987029;28;20046;-82
2021/07/09 05:00:25;;;;;;;10.40;5.03;;;16.80;87.80;;;;;;4970736;28;21469;-81
2021/07/09 05:02:55;;;;;;;9.35;4.43;;;16.80;87.80;;;;;;4977129;28;20070;-81
2021/07/09 05:05:22;;;;;;;6.95;4.07;;;16.80;87.70;;;;;;4987708;28;20038;-81
2021/07/09 05:07:49;;;;;;;10.75;5.32;;;16.90;87.70;;;;;;4953072;28;20051;-81
2021/07/09 05:10:16;;;;;;;9.32;4.60;;;16.90;87.60;;;;;;4964323;28;20043;-81
2021/07/09 05:12:43;;;;;;;9.20;4.30;;;16.90;87.50;;;;;;4972748;28;20089;-81
2021/07/09 05:15:11;;;;;;;11.75;6.10;;;16.90;87.40;;;;;;4938871;28;20047;-81
2021/07/09 05:17:38;;;;;;;10.23;4.65;;;17.00;87.40;;;;;;4971592;28;20077;-81
2021/07/09 05:20:05;;;;;;;7.93;4.55;;;17.00;87.40;;;;;;4971089;28;20046;-81
2021/07/09 05:22:32;;;;;;;10.40;5.45;;;17.10;87.40;;;;;;4979158;28;20047;-81
2021/07/09 05:25:00;;;;;;;14.25;7.70;;;17.10;87.20;;;;;;4962325;28;20055;-81
2021/07/09 05:27:33;;;;;;;13.85;8.27;;;17.20;87.20;;;;;;4969336;28;20123;-81
2021/07/09 05:30:03;;;;;;;15.02;7.63;;;17.20;87.10;;;;;;5004969;28;20116;-81
2021/07/09 05:32:30;;;;;;;9.02;5.75;;;17.20;87.00;;;;;;4955084;28;20534;-80
2021/07/09 05:35:02;;;;;;;11.95;6.95;;;17.30;87.00;;;;;;4968533;28;20039;-82
2021/07/09 05:37:29;;;;;;;13.43;7.30;;;17.30;86.90;;;;;;4931665;28;20042;-83
2021/07/09 05:39:56;;;;;;;12.05;6.53;;;17.40;86.80;;;;;;4947405;28;20403;-83
2021/07/09 05:42:23;;;;;;;11.88;7.47;;;17.40;86.70;;;;;;4933172;28;20043;-79
2021/07/09 05:44:52;;;;;;;10.98;5.97;;;17.50;86.50;;;;;;4952228;28;20051;-81
2021/07/09 05:47:19;;;;;;;10.85;6.35;;;17.60;86.40;;;;;;4924053;28;20063;-79
2021/07/09 05:49:46;;;;;;;13.23;8.20;;;17.60;86.20;;;;;;4968011;28;20051;-82
2021/07/09 05:52:13;;;;;;;9.50;5.53;;;17.70;86.20;;;;;;4986083;28;20047;-81
2021/07/09 05:54:40;;;;;;;12.50;7.25;;;17.70;86.10;;;;;;4969303;28;20051;-81
2021/07/09 05:57:07;;;;;;;14.27;8.25;;;17.70;85.90;;;;;;4986852;28;20027;-82
2021/07/09 05:59:35;;;;;;;11.38;6.90;;;17.80;85.90;;;;;;4955346;28;20038;-82
2021/07/09 06:02:03;;;;;;;14.38;8.77;;;17.80;85.90;;;;;;4987414;28;20388;-82
2021/07/09 06:04:30;;;;;;;14.23;8.93;;;17.80;85.80;;;;;;4955174;28;20579;-81
2021/07/09 06:06:58;;;;;;;13.48;7.85;;;17.90;85.80;;;;;;4938439;28;20054;-82
2021/07/09 06:09:25;;;;;;;13.15;8.07;;;17.90;85.70;;;;;;4987013;28;20050;-80
2021/07/09 06:11:52;;;;;;;10.80;6.35;;;18.00;85.60;;;;;;4985985;28;20066;-84
2021/07/09 06:14:19;;;;;;;10.18;5.70;;;18.10;85.50;;;;;;4954176;28;20043;-83
2021/07/09 06:16:47;;;;;;;11.02;5.88;;;18.20;85.40;;;;;;5000670;28;20042;-83
2021/07/09 06:19:14;;;;;;;9.77;5.55;;;18.20;85.00;;;;;;4970728;28;20051;-83
2021/07/09 06:21:42;;;;;;;6.57;4.45;;;18.30;84.90;;;;;;5003308;28;20046;-83
2021/07/09 06:24:12;;;;;;;6.53;3.83;;;18.40;84.90;;;;;;4970528;28;20523;-84
2021/07/09 06:26:41;;;;;;;7.13;4.45;;;18.50;84.70;;;;;;4986751;28;20043;-86
2021/07/09 06:29:09;;;;;;;5.88;3.45;;;18.60;84.50;;;;;;4979235;28;20130;-86
2021/07/09 06:31:36;;;;;;;7.57;4.20;;;18.60;84.20;;;;;;4990039;28;20522;-83
2021/07/09 06:34:03;;;;;;;7.43;4.00;;;18.70;84.00;;;;;;4974459;28;20051;-83
2021/07/09 06:36:30;;;;;;;9.45;4.30;;;18.70;83.20;;;;;;4974932;28;20039;-83
2021/07/09 06:38:57;;;;;;;6.30;3.58;;;18.80;82.90;;;;;;4991035;28;20042;-83
2021/07/09 06:41:24;;;;;;;5.22;3.40;;;18.80;82.90;;;;;;4958636;28;20039;-83
2021/07/09 06:43:52;;;;;;;5.95;2.78;;;18.90;82.70;;;;;;4974151;28;20058;-85
2021/07/09 06:46:20;;;;;;;5.15;2.78;;;19.00;82.10;;;;;;4990539;28;20045;-83
2021/07/09 06:48:47;;;;;;;3.83;2.45;;;19.00;81.90;;;;;;4987973;28;20046;-79
2021/07/09 06:51:14;;;;;;;3.35;2.33;;;19.10;81.90;;;;;;4974700;28;20050;-83
2021/07/09 06:53:41;;;;;;;4.75;2.03;;;19.10;81.40;;;;;;4944912;28;20047;-83
2021/07/09 06:56:08;;;;;;;3.78;2.15;;;19.20;81.10;;;;;;4983936;28;20416;-83
2021/07/09 06:58:35;;;;;;;4.55;2.38;;;19.20;80.60;;;;;;4974655;28;20364;-83
2021/07/09 07:01:02;;;;;;;4.30;1.95;;;19.30;80.10;;;;;;4988808;28;20043;-81
2021/07/09 07:03:30;;;;;;;3.55;1.58;;;19.30;80.70;;;;;;4975011;28;20038;-81
2021/07/09 07:05:57;;;;;;;2.55;1.30;;;19.40;80.00;;;;;;4988485;28;20039;-83
2021/07/09 07:08:25;;;;;;;3.63;1.73;;;19.40;80.10;;;;;;4990026;28;20039;-84
2021/07/09 07:10:53;;;;;;;2.97;1.40;;;19.50;80.00;;;;;;4963419;28;20098;-84
2021/07/09 07:13:22;;;;;;;2.83;1.40;;;19.70;80.00;;;;;;5004093;28;20043;-82
2021/07/09 07:15:50;;;;;;;2.45;1.45;;;19.80;79.70;;;;;;4934830;28;20444;-83
2021/07/09 07:18:17;;;;;;;4.43;2.38;;;19.80;79.50;;;;;;5000791;28;20051;-82
2021/07/09 07:20:46;;;;;;;3.33;2.03;;;19.90;78.60;;;;;;4989620;28;20467;-79
2021/07/09 07:23:15;;;;;;;2.50;1.40;;;20.00;78.50;;;;;;4989859;28;20090;-78
2021/07/09 07:25:44;;;;;;;4.43;1.98;;;20.10;78.20;;;;;;4988805;28;20046;-77
2021/07/09 07:28:13;;;;;;;3.28;1.83;;;20.20;77.90;;;;;;4957370;28;20451;-78
2021/07/09 07:31:00;;;;;;;3.47;1.90;;;20.30;77.80;;;;;;5001147;28;20372;-81
2021/07/09 07:33:27;;;;;;;3.25;1.60;;;20.40;77.70;;;;;;4972317;28;20090;-80
2021/07/09 07:36:12;;;;;;;2.88;1.50;;;20.50;77.50;;;;;;4976273;28;20142;-81
2021/07/09 07:38:39;;;;;;;3.60;1.58;;;20.60;78.10;;;;;;4971164;28;20036;-81
2021/07/09 07:41:06;;;;;;;3.33;1.50;;;20.60;77.00;;;;;;4972892;28;20555;-81
2021/07/09 07:43:33;;;;;;;2.80;1.42;;;20.70;76.80;;;;;;5001772;28;20050;-80
2021/07/09 07:46:00;;;;;;;3.92;1.75;;;20.80;77.00;;;;;;4965379;28;20482;-83
2021/07/09 07:48:27;;;;;;;3.10;1.48;;;20.90;76.40;;;;;;4967011;28;20043;-85
2021/07/09 07:50:54;;;;;;;3.35;1.85;;;20.90;76.00;;;;;;4989067;28;20176;-84
2021/07/09 07:53:21;;;;;;;6.43;2.28;;;21.00;75.90;;;;;;4985644;28;20562;-83
2021/07/09 07:55:48;;;;;;;2.92;1.40;;;21.10;75.10;;;;;;4951039;28;20055;-82
2021/07/09 07:58:15;;;;;;;3.03;1.83;;;21.10;75.20;;;;;;4966614;28;20122;-83
2021/07/09 08:00:42;;;;;;;2.63;1.60;;;21.20;75.10;;;;;;4972495;28;20046;-82
2021/07/09 08:03:09;;;;;;;3.17;1.40;;;21.30;75.00;;;;;;4972219;28;20105;-82
2021/07/09 08:05:39;;;;;;;2.65;1.60;;;21.40;74.60;;;;;;4971430;28;20043;-82
2021/07/09 08:08:06;;;;;;;2.47;1.45;;;21.40;74.60;;;;;;4966678;28;20407;-82
2021/07/09 08:10:33;;;;;;;2.13;1.25;;;21.50;74.40;;;;;;4965194;28;20097;-82
2021/07/09 08:13:00;;;;;;;3.15;2.03;;;21.60;73.60;;;;;;4971850;28;20050;-82
2021/07/09 08:15:28;;;;;;;2.65;1.75;;;21.60;73.40;;;;;;4970557;28;20829;-82
2021/07/09 08:17:55;;;;;;;2.95;1.50;;;21.60;72.60;;;;;;4988625;28;20502;-79
2021/07/09 08:20:22;;;;;;;3.03;1.92;;;21.60;72.80;;;;;;4954471;28;20051;-78
2021/07/09 08:22:50;;;;;;;3.83;1.92;;;21.70;72.00;;;;;;4971817;28;20104;-76
2021/07/09 08:25:17;;;;;;;4.20;2.10;;;21.70;71.80;;;;;;4986825;28;20066;-76
2021/07/09 08:27:44;;;;;;;2.78;1.42;;;21.80;71.90;;;;;;4972786;28;20117;-79
2021/07/09 08:30:12;;;;;;;2.15;1.02;;;22.00;71.80;;;;;;4988629;28;20110;-79
2021/07/09 08:32:40;;;;;;;4.38;2.13;;;22.00;71.30;;;;;;4973523;28;20050;-79
2021/07/09 08:35:08;;;;;;;4.78;2.47;;;22.10;69.80;;;;;;4973029;28;20062;-79
2021/07/09 08:37:51;;;;;;;4.85;2.30;;;22.00;69.60;;;;;;4972630;28;20391;-77
2021/07/09 08:40:18;;;;;;;4.65;2.55;;;22.00;69.60;;;;;;5001028;28;20392;-78
2021/07/09 08:42:47;;;;;;;4.53;2.58;;;22.10;69.60;;;;;;4986620;28;20039;-80
2021/07/09 08:45:14;;;;;;;5.95;3.40;;;22.10;69.40;;;;;;4998122;28;20075;-78
2021/07/09 08:47:42;;;;;;;4.82;2.88;;;22.20;68.50;;;;;;4985770;28;20043;-80
2021/07/09 08:50:11;;;;;;;4.70;2.88;;;22.10;68.30;;;;;;5004582;28;20054;-80
2021/07/09 08:52:40;;;;;;;4.30;2.40;;;22.20;68.20;;;;;;4987708;28;20057;-80
2021/07/09 08:55:13;;;;;;;3.88;1.92;;;22.30;68.50;;;;;;4986883;28;20066;-80
2021/07/09 08:57:44;;;;;;;3.50;2.08;;;22.40;68.80;;;;;;4985932;28;20097;-80
2021/07/09 09:00:32;;;;;;;3.35;1.77;;;22.40;67.90;;;;;;4971093;28;20090;-79
2021/07/09 09:02:59;;;;;;;3.40;1.73;;;22.50;68.00;;;;;;4967619;28;20053;-79
2021/07/09 09:05:28;;;;;;;3.67;1.95;;;22.70;67.90;;;;;;5003943;28;20031;-80
2021/07/09 09:07:59;;;;;;;3.45;2.25;;;22.80;67.50;;;;;;5000322;28;20488;-80
2021/07/09 09:10:47;;;;;;;3.22;1.70;;;22.90;66.80;;;;;;5002312;28;20050;-79
2021/07/09 09:13:30;;;;;;;4.25;2.70;;;23.10;67.00;;;;;;5000672;28;20038;-80
2021/07/09 09:16:10;;;;;;;3.70;2.28;;;23.30;66.40;;;;;;4987270;28;20046;-79
2021/07/09 09:18:45;;;;;;;4.30;2.63;;;23.30;66.40;;;;;;4984855;28;20047;-79
2021/07/09 09:21:15;;;;;;;5.15;3.22;;;23.40;65.90;;;;;;4969275;28;20042;-80
2021/07/09 09:23:48;;;;;;;3.42;2.35;;;23.60;65.60;;;;;;4986905;28;20134;-79
2021/07/09 09:26:35;;;;;;;5.15;3.10;;;23.80;65.10;;;;;;4987198;28;20109;-76
2021/07/09 09:29:02;;;;;;;4.05;2.67;;;24.00;64.80;;;;;;4970486;28;20105;-76
2021/07/09 09:31:34;;;;;;;4.85;3.13;;;24.10;64.40;;;;;;4982073;28;20113;-76
2021/07/09 09:34:03;;;;;;;4.28;2.70;;;24.30;64.00;;;;;;4993658;28;20051;-76
2021/07/09 09:36:31;;;;;;;3.28;2.10;;;24.30;63.90;;;;;;4976151;28;20070;-76
2021/07/09 09:39:02;;;;;;;5.43;3.15;;;24.20;64.40;;;;;;4967772;28;20683;-76
2021/07/09 09:41:30;;;;;;;4.88;3.45;;;24.20;64.20;;;;;;4981862;28;20363;-76
2021/07/09 09:44:13;;;;;;;5.35;3.50;;;24.00;63.80;;;;;;4984719;28;20535;-76
2021/07/09 09:46:41;;;;;;;5.38;3.53;;;24.00;63.60;;;;;;4980735;28;20125;-78
2021/07/09 09:49:12;;;;;;;6.57;4.32;;;24.10;63.70;;;;;;4982108;28;20047;-76
2021/07/09 09:51:40;;;;;;;8.93;5.07;;;24.10;63.40;;;;;;4965585;28;20051;-76
2021/07/09 09:54:09;;;;;;;6.22;4.05;;;24.00;63.30;;;;;;4979836;28;20074;-80
2021/07/09 09:56:46;;;;;;;6.68;4.20;;;23.90;63.90;;;;;;4982235;28;20047;-80
2021/07/09 09:59:14;;;;;;;6.60;3.60;;;24.00;64.00;;;;;;4970125;28;20435;-80
2021/07/09 10:01:48;;;;;;;6.25;4.20;;;24.00;64.10;;;;;;4985073;28;20050;-80
2021/07/09 10:04:16;;;;;;;5.82;3.72;;;24.10;64.20;;;;;;4970939;28;20562;-79
2021/07/09 10:06:44;;;;;;;7.35;4.55;;;24.20;64.10;;;;;;5000203;28;20110;-75
2021/07/09 10:09:12;;;;;;;5.70;3.67;;;24.40;63.40;;;;;;5001628;28;20385;-76
2021/07/09 10:11:40;;;;;;;6.10;4.30;;;24.40;63.40;;;;;;4987482;28;20106;-76
2021/07/09 10:14:12;;;;;;;4.78;3.42;;;24.40;63.20;;;;;;4989154;28;20051;-76
2021/07/09 10:16:44;;;;;;;5.97;3.40;;;24.20;63.50;;;;;;4983991;28;20043;-76
2021/07/09 10:19:15;;;;;;;6.47;3.92;;;24.00;63.80;;;;;;4985852;28;20055;-76
2021/07/09 10:21:43;;;;;;;5.32;3.65;;;23.80;64.30;;;;;;4972315;28;20042;-75
2021/07/09 10:24:16;;;;;;;5.45;3.50;;;23.90;64.40;;;;;;4955655;28;20474;-75
2021/07/09 10:26:47;;;;;;;4.88;3.58;;;24.00;64.50;;;;;;5002239;28;20043;-75
2021/07/09 10:29:16;;;;;;;4.97;3.40;;;24.20;64.20;;;;;;4974534;28;20051;-75
2021/07/09 10:31:46;;;;;;;5.65;3.95;;;24.40;63.80;;;;;;4995722;28;20050;-75
2021/07/09 10:34:52;;;;;;;5.38;4.18;;;24.60;63.30;;;;;;4970250;28;20403;-76
2021/07/09 10:37:19;;;;;;;6.80;4.78;;;24.70;62.80;;;;;;4917718;29;20052;-76
2021/07/09 10:39:48;;;;;;;5.38;4.07;;;24.70;62.80;;;;;;4917930;29;20100;-76
2021/07/09 10:42:23;;;;;;;6.03;3.75;;;24.90;62.50;;;;;;4941571;28;20046;-76
2021/07/09 10:45:11;;;;;;;4.75;3.45;;;25.10;62.30;;;;;;4973848;28;20046;-76
2021/07/09 10:47:43;;;;;;;5.63;3.40;;;25.30;61.50;;;;;;5005864;28;20663;-76
2021/07/09 10:50:19;;;;;;;6.05;3.70;;;25.30;60.90;;;;;;4972318;28;20050;-76
2021/07/09 10:52:57;;;;;;;4.07;3.40;;;25.30;59.90;;;;;;4984913;28;20452;-76
2021/07/09 10:55:24;;;;;;;4.72;3.58;;;25.50;60.50;;;;;;4988295;28;20043;-75
2021/07/09 10:58:07;;;;;;;5.68;3.03;;;25.60;59.50;;;;;;4986800;28;20077;-76
2021/07/09 11:00:49;;;;;;;4.35;2.80;;;25.80;59.30;;;;;;4963940;28;20070;-76
2021/07/09 11:03:23;;;;;;;4.88;3.55;;;26.00;58.40;;;;;;4970642;28;20431;-75
2021/07/09 11:06:15;;;;;;;4.85;3.83;;;26.10;58.40;;;;;;4970675;28;20131;-75
2021/07/09 11:09:03;;;;;;;4.95;3.83;;;26.20;58.10;;;;;;4973583;28;20043;-75
2021/07/09 11:11:42;;;;;;;5.50;3.85;;;26.10;58.20;;;;;;4982009;28;20090;-75
2021/07/09 11:14:39;;;;;;;4.63;3.33;;;26.20;58.00;;;;;;4968856;28;20054;-75
2021/07/09 11:17:15;;;;;;;5.63;3.67;;;26.30;57.70;;;;;;4968322;28;20045;-73
2021/07/09 11:19:48;;;;;;;4.93;3.30;;;26.30;57.70;;;;;;4989346;28;20058;-75
2021/07/09 11:22:20;;;;;;;5.30;3.30;;;26.20;57.80;;;;;;4973346;28;20093;-75
2021/07/09 11:24:53;;;;;;;4.25;2.65;;;26.20;57.50;;;;;;4956160;28;20542;-75
2021/07/09 11:27:27;;;;;;;5.63;3.38;;;26.20;57.50;;;;;;4953431;28;20061;-74
2021/07/09 11:29:59;;;;;;;6.38;4.18;;;26.20;56.50;;;;;;4974083;28;20051;-74
2021/07/09 11:32:32;;;;;;;5.22;3.72;;;26.00;55.50;;;;;;4971570;28;20517;-74
2021/07/09 11:34:59;;;;;;;4.45;3.45;;;25.70;55.90;;;;;;4969307;28;20031;-75
2021/07/09 11:37:33;;;;;;;4.65;3.17;;;25.60;56.60;;;;;;4968841;28;20491;-75
2021/07/09 11:40:06;;;;;;;6.13;3.53;;;25.80;56.60;;;;;;4979372;28;20122;-74
2021/07/09 11:42:37;;;;;;;5.45;3.60;;;25.80;56.50;;;;;;4983410;28;20074;-74
2021/07/09 11:45:09;;;;;;;4.95;3.55;;;25.80;56.40;;;;;;4967523;28;20054;-74
2021/07/09 11:47:38;;;;;;;5.05;3.38;;;25.90;56.40;;;;;;4966941;28;20411;-74
2021/07/09 11:50:17;;;;;;;5.07;3.60;;;26.00;56.50;;;;;;4965625;28;20038;-74
2021/07/09 11:52:52;;;;;;;4.93;2.72;;;26.10;56.40;;;;;;4969019;28;20411;-73
2021/07/09 11:55:26;;;;;;;4.78;2.95;;;26.20;55.70;;;;;;4970580;28;20035;-74
2021/07/09 11:57:53;;;;;;;4.65;3.13;;;26.30;55.60;;;;;;4967120;28;20042;-74
2021/07/09 12:00:22;;;;;;;5.60;2.67;;;26.40;55.60;;;;;;4969919;28;20043;-74
2021/07/09 12:02:50;;;;;;;5.95;3.42;;;26.70;55.50;;;;;;4974354;28;20047;-73
2021/07/09 12:05:23;;;;;;;5.95;3.40;;;27.00;55.00;;;;;;4966322;28;20041;-75
2021/07/09 12:07:52;;;;;;;5.30;3.42;;;27.00;54.40;;;;;;4978690;28;20514;-75
2021/07/09 12:10:27;;;;;;;3.88;2.78;;;27.30;54.40;;;;;;4990792;28;20054;-75
2021/07/09 12:13:00;;;;;;;4.90;3.40;;;27.60;54.10;;;;;;4966435;28;20034;-75
2021/07/09 12:15:30;;;;;;;4.57;2.97;;;28.00;53.70;;;;;;4981488;28;20078;-75
2021/07/09 12:18:01;;;;;;;6.68;3.72;;;28.40;54.10;;;;;;4964029;28;20046;-76
2021/07/09 12:20:36;;;;;;;7.57;3.70;;;28.70;52.30;;;;;;4993679;28;20058;-75
2021/07/09 12:23:06;;;;;;;7.63;3.35;;;29.00;52.40;;;;;;4974341;28;20101;-75
2021/07/09 12:25:35;;;;;;;5.50;3.53;;;29.10;51.50;;;;;;4977302;28;20097;-75
2021/07/09 12:28:07;;;;;;;5.15;3.05;;;29.20;51.10;;;;;;4960516;28;20122;-73
2021/07/09 12:30:34;;;;;;;;;;;29.40;51.40;;;;;;4978382;28;20141;-73
2021/07/09 12:33:04;;;;;;;5.13;2.97;;;29.70;51.40;;;;;;4994457;28;20025;-73
2021/07/09 12:35:53;;;;;;;5.35;3.67;;;29.90;51.10;;;;;;4964119;28;20050;-75
2021/07/09 12:38:21;;;;;;;3.35;2.33;;;30.10;49.90;;;;;;4971852;28;20042;-76
2021/07/09 12:40:50;;;;;;;3.72;2.28;;;30.20;49.80;;;;;;4981482;28;20062;-76
2021/07/09 12:43:47;;;;;;;3.60;2.45;;;30.40;49.60;;;;;;4964435;28;20057;-76
2021/07/09 12:46:18;;;;;;;4.22;2.35;;;30.70;48.60;;;;;;4962822;28;20165;-75
2021/07/09 12:48:53;;;;;;;3.22;2.03;;;30.70;48.10;;;;;;4992837;28;20751;-76
2021/07/09 12:51:29;;;;;;;4.00;2.28;;;30.70;47.80;;;;;;4965772;28;20118;-76
2021/07/09 12:54:08;;;;;;;4.10;2.40;;;31.00;47.80;;;;;;4969076;28;20499;-76
2021/07/09 12:56:40;;;;;;;3.53;2.28;;;31.20;46.90;;;;;;4956943;28;20046;-75
2021/07/09 12:59:15;;;;;;;3.63;2.13;;;31.30;46.90;;;;;;4969551;28;20073;-76